Terminal Aerodrome Forecast
Issued by NWS

Home | Current Version | Previous Version | Text Only | Print | Product List | Glossary On
Versions: 1 2 3 4 5 6 7 8 9 10 11 12 13 14 15
000
FTUS43 KTOP 311700
TAFMHK
TAF
KMHK 311727Z 3118/0118 17010KT 3SM -RA BR SCT009 OVC018
     FM311900 17011KT 2SM -RA BR OVC008
     FM010300 18005KT 1 1/2SM -RA BR OVC004
     FM011000 34011G21KT 2SM -SN BR OVC006=

USA.gov is the U.S. government's official web portal to all federal, state and local government web resources and services.